Архив погоды в Бологом

Метеограмма Бологое
Среда, 24 Мая
Время местн. Темп Ветер Видим Явления Облачность нижн/средн/верх Атм. давл. Влжн Точка росы ВНГО R Сост. почвы Tg s
Напр Скр Прв ур.ст ур.м изм
09:00 +17.1° Ю 2 - 20 км - переменная облачность 743 759 +0.2 46% +5.4° более 2.5 км 0 Сухая (без трещин) - -
06:00 +9° штиль 0 - 10 км - переменная облачность 742 759 +0.3 80% +5.8° более 2.5 км - - - -
03:00 +6° З 1 - 10 км - ясно 742 759 +0.3 85% +3.7° более 2.5 км - - - -
00:00 +9.4° З 1 - 10 км - ясно 742 759 +0.4 63% +2.8° более 2.5 км - - - -
Вторник, 23 Мая
Время местн. Темп Ветер Видим Явления Облачность нижн/средн/верх Атм. давл. Влжн Точка росы ВНГО R Сост. почвы Tg s
Напр Скр Прв ур.ст ур.м изм
21:00 +16.1° З 2 - 20 км - переменная облачность 741 758 +0.7 35% +0.7° более 2.5 км 0 - - -
18:00 +20.1° З 3 11 20 км - переменная облачность 741 757 +0.2 23% -1.6° 1 км - - - -
15:00 +19.4° З,С-З 4 - 20 км - переменная облачность 741 757 -0.4 42% +6.1° 1 км - - - -
12:00 +17.2° З 3 - 20 км - преимущественно облачно 741 757 +0.3 45% +5.3° 1 км - - - -
09:00 +15.2° З 2 - 10 км - облачно с прояснениями 741 757 0 61% +7.8° более 2.5 км 0 Влажная (без луж) +15° -
06:00 +8.8° Ю-З 1 - 10 км - преимущественно облачно 741 758 -0.8 79% +5.4° 1 км - - - -
03:00 +8.6° Ю,Ю-З 2 - 10 км ливневый дождь преимущественно облачно 742 758 -0.8 79% +5.1° 1 км - - - -
00:00 +10° Ю-В 2 - 10 км - преимущественно облачно 742 759 0 64% +3.5° 1 км - - - -
Понедельник, 22 Мая
Время местн. Темп Ветер Видим Явления Облачность нижн/средн/верх Атм. давл. Влжн Точка росы ВНГО R Сост. почвы Tg s
Напр Скр Прв ур.ст ур.м изм
21:00 +11.7° Ю-В 2 - 20 км - преимущественно облачно 742 759 -0.6 51% +2° 1 км 0 - - -
18:00 +13.4° Ю-В 3 - 20 км - облачно с прояснениями 743 760 -1.4 42% +0.8° - - - - -
15:00 +11.8° Ю 2 - 20 км - облачно 744 761 -1.1 42% -0.8° более 2.5 км - - - -
12:00 +9.8° С 1 - 20 км - облачно 745 762 -0.3 40% -3° - - - - -
09:00 +8.4° С-В 1 - 20 км - облачно с прояснениями 746 763 -0.1 38% -5° - 0 Сухая (без трещин) - -
06:00 +3.5° С 1 - 20 км - ясно 746 763 +0.2 66% -2.2° более 2.5 км - - - -
03:00 +3.4° С,С-В 1 - 20 км - ясно 746 763 +0.8 61% -3.4° более 2.5 км - - - -
00:00 +5.6° С 2 - 20 км - ясно 745 762 +0.3 59% -1.7° более 2.5 км - - - -
Воскресенье, 21 Мая
Время местн. Темп Ветер Видим Явления Облачность нижн/средн/верх Атм. давл. Влжн Точка росы ВНГО R Сост. почвы Tg s
Напр Скр Прв ур.ст ур.м изм
21:00 +10.8° С 2 - 20 км - переменная облачность 744 761 +0.5 35% -4.2° - 0 - - -
18:00 +14.2° С,С-З 4 - 20 км - переменная облачность 744 761 -0.4 28% -4.1° более 2.5 км - - - -
15:00 +14° С 4 11 20 км - ясно 744 761 -0.5 29% -3.7° более 2.5 км - - - -
12:00 +12.8° С 4 - 20 км - ясно 745 762 -0.2 36% -1.8° 1 км - - - -
09:00 +10° С 5 - 20 км - переменная облачность 745 762 +0.2 44% -1.7° 1 км 0 Влажная (без луж) - -
06:00 +8.2° С 3 - 10 км - преимущественно облачно 745 762 +0.3 69% +2.8° 1 км - - - -